createdAt,value
2023-07-10T00:01:30.732Z,11.90
2023-07-10T00:03:57.893Z,12.80
2023-07-10T00:06:25.468Z,17.77
2023-07-10T00:08:52.365Z,13.50
2023-07-10T00:11:23.180Z,13.13
2023-07-10T00:13:50.622Z,13.50
2023-07-10T00:16:21.086Z,12.10
2023-07-10T00:18:49.556Z,12.47
2023-07-10T00:21:16.875Z,12.90
2023-07-10T00:23:43.685Z,12.70
2023-07-10T00:26:23.377Z,17.73
2023-07-10T00:28:52.200Z,12.67
2023-07-10T00:31:19.137Z,12.93
2023-07-10T00:33:48.507Z,15.30
2023-07-10T00:36:28.392Z,13.67
2023-07-10T00:38:55.608Z,14.93
2023-07-10T00:41:30.479Z,13.70
2023-07-10T00:44:01.652Z,16.33
2023-07-10T00:46:40.033Z,15.30
2023-07-10T00:49:36.429Z,20.77
2023-07-10T00:52:19.499Z,16.80
2023-07-10T00:54:49.821Z,17.17
2023-07-10T00:57:23.321Z,22.00
2023-07-10T00:59:52.165Z,16.90
2023-07-10T01:02:21.551Z,15.60
2023-07-10T01:04:56.302Z,16.17
2023-07-10T01:07:25.586Z,15.37
2023-07-10T01:09:58.574Z,14.90
2023-07-10T01:12:27.335Z,15.13
2023-07-10T01:14:54.196Z,15.67
2023-07-10T01:17:21.218Z,15.30
2023-07-10T01:19:48.960Z,17.97
2023-07-10T01:22:16.740Z,18.10
2023-07-10T01:24:43.714Z,16.60
2023-07-10T01:27:14.227Z,17.67
2023-07-10T01:29:48.470Z,18.70
2023-07-10T01:32:20.874Z,20.43
2023-07-10T01:35:06.131Z,20.00
2023-07-10T01:37:33.066Z,21.40
2023-07-10T01:39:59.880Z,20.47
2023-07-10T01:42:26.838Z,19.97
2023-07-10T01:44:54.110Z,21.00
2023-07-10T01:47:21.663Z,20.37
2023-07-10T01:49:51.128Z,21.40
2023-07-10T01:52:20.626Z,22.50
2023-07-10T01:54:47.660Z,20.87
2023-07-10T01:57:16.273Z,19.17
2023-07-10T01:59:43.395Z,17.73
2023-07-10T02:02:10.501Z,19.37
2023-07-10T02:04:37.788Z,18.20
2023-07-10T02:07:05.120Z,20.00
2023-07-10T02:09:33.385Z,17.80
2023-07-10T02:12:02.104Z,16.83
2023-07-10T02:14:30.318Z,18.80
2023-07-10T02:16:57.145Z,19.47
2023-07-10T02:19:24.068Z,21.17
2023-07-10T02:21:51.298Z,25.03
2023-07-10T02:24:18.198Z,19.10
2023-07-10T02:26:45.262Z,20.90
2023-07-10T02:29:12.213Z,21.73
2023-07-10T02:31:39.106Z,17.70
2023-07-10T02:34:06.074Z,20.47
2023-07-10T02:36:34.494Z,16.37
2023-07-10T02:39:01.368Z,21.30
2023-07-10T02:41:28.278Z,19.50
2023-07-10T02:43:55.074Z,15.57
2023-07-10T02:46:21.998Z,15.37
2023-07-10T02:48:50.034Z,16.70
2023-07-10T02:51:16.908Z,16.53
2023-07-10T02:53:43.707Z,15.23
2023-07-10T02:56:10.572Z,15.07
2023-07-10T02:58:37.459Z,15.13
2023-07-10T03:01:04.808Z,17.97
2023-07-10T03:03:31.822Z,15.13
2023-07-10T03:06:03.642Z,16.87
2023-07-10T03:08:31.359Z,16.73
2023-07-10T03:11:07.157Z,17.67
2023-07-10T03:13:34.410Z,14.90
2023-07-10T03:16:10.120Z,16.93
2023-07-10T03:18:38.102Z,17.63
2023-07-10T03:21:05.728Z,17.43
2023-07-10T03:23:32.603Z,16.83
2023-07-10T03:25:59.570Z,18.33
2023-07-10T03:28:26.767Z,18.70
2023-07-10T03:30:53.640Z,17.70
2023-07-10T03:33:20.976Z,24.00
2023-07-10T03:35:49.985Z,23.30
2023-07-10T03:38:18.004Z,26.57
2023-07-10T03:40:56.977Z,25.27
2023-07-10T03:43:24.646Z,26.80
2023-07-10T03:45:52.042Z,28.20
2023-07-10T03:48:18.862Z,25.07
2023-07-10T03:50:46.178Z,26.00
2023-07-10T03:53:13.269Z,27.93
2023-07-10T03:55:51.936Z,24.63
2023-07-10T03:58:33.378Z,24.70
2023-07-10T04:01:01.779Z,25.37
2023-07-10T04:03:31.669Z,25.03
2023-07-10T04:05:59.590Z,28.03
2023-07-10T04:08:31.729Z,25.30
2023-07-10T04:11:04.231Z,27.80
2023-07-10T04:13:31.422Z,29.93
2023-07-10T04:16:21.914Z,29.10
2023-07-10T04:18:50.797Z,32.30
2023-07-10T04:21:20.889Z,25.80
2023-07-10T04:23:48.433Z,28.70
2023-07-10T04:26:17.075Z,26.90
2023-07-10T04:28:48.111Z,22.90
2023-07-10T04:31:16.310Z,25.80
2023-07-10T04:33:43.698Z,24.47
2023-07-10T04:36:10.643Z,22.07
2023-07-10T04:38:37.663Z,22.87
2023-07-10T04:41:06.907Z,24.00
2023-07-10T04:43:35.348Z,21.30
2023-07-10T04:46:05.296Z,24.60
2023-07-10T04:48:33.083Z,23.37
2023-07-10T04:51:04.859Z,26.03
2023-07-10T04:53:33.480Z,25.13
2023-07-10T04:56:03.066Z,22.77
2023-07-10T04:58:30.324Z,22.87
2023-07-10T05:00:59.162Z,24.53
2023-07-10T05:03:27.005Z,21.97
2023-07-10T05:05:57.909Z,22.63
2023-07-10T05:08:26.441Z,26.67
2023-07-10T05:10:55.518Z,20.23
2023-07-10T05:13:26.558Z,21.47
2023-07-10T05:15:56.274Z,23.50
2023-07-10T05:18:23.572Z,24.60
2023-07-10T05:20:50.537Z,23.87
2023-07-10T05:23:17.896Z,22.50
2023-07-10T05:26:06.807Z,26.60
2023-07-10T05:28:35.364Z,23.90
2023-07-10T05:31:05.602Z,25.10
2023-07-10T05:33:32.609Z,25.10
2023-07-10T05:36:03.683Z,27.73
2023-07-10T05:38:33.492Z,25.27
2023-07-10T05:41:01.179Z,23.10
2023-07-10T05:43:30.565Z,24.00
2023-07-10T05:45:57.807Z,18.70
2023-07-10T05:48:25.005Z,17.83
2023-07-10T05:50:52.027Z,21.30
2023-07-10T05:53:19.164Z,19.87
2023-07-10T05:55:48.125Z,18.53
2023-07-10T05:58:17.559Z,23.97
2023-07-10T06:00:44.942Z,18.40
2023-07-10T06:03:12.039Z,20.20
2023-07-10T06:05:39.086Z,16.80
2023-07-10T06:08:06.794Z,14.87
2023-07-10T06:10:36.888Z,14.53
2023-07-10T06:13:04.020Z,14.13
2023-07-10T06:15:31.528Z,16.80
2023-07-10T06:17:58.521Z,11.83
2023-07-10T06:20:25.347Z,12.33
2023-07-10T06:22:52.194Z,11.80
2023-07-10T06:25:19.024Z,15.57
2023-07-10T06:27:45.895Z,11.87
2023-07-10T06:30:12.963Z,11.07
2023-07-10T06:32:40.984Z,10.30
2023-07-10T06:35:08.188Z,10.80
2023-07-10T06:37:35.022Z,13.70
2023-07-10T06:40:06.296Z,11.27
2023-07-10T06:42:33.188Z,11.87
2023-07-10T06:44:59.993Z,15.23
2023-07-10T06:47:26.928Z,13.87
2023-07-10T06:49:53.951Z,12.67
2023-07-10T06:52:20.986Z,15.80
2023-07-10T06:54:47.876Z,13.60
2023-07-10T06:57:14.674Z,14.37
2023-07-10T06:59:41.440Z,13.30
2023-07-10T07:02:12.470Z,15.90
2023-07-10T07:04:39.652Z,12.77
2023-07-10T07:07:06.533Z,11.90
2023-07-10T07:09:33.363Z,8.17
2023-07-10T07:12:00.584Z,6.10
2023-07-10T07:14:28.051Z,9.33
2023-07-10T07:16:55.333Z,6.00
2023-07-10T07:19:22.264Z,6.50
2023-07-10T07:21:49.193Z,5.80
2023-07-10T07:24:16.340Z,7.57
2023-07-10T07:26:43.559Z,5.80
2023-07-10T07:29:10.760Z,8.43
2023-07-10T07:31:40.711Z,5.30
2023-07-10T07:34:07.749Z,8.10
2023-07-10T07:36:35.683Z,14.67
2023-07-10T07:39:04.267Z,8.57
2023-07-10T07:41:35.262Z,20.53
2023-07-10T07:44:02.887Z,5.63
2023-07-10T07:46:30.515Z,6.73
2023-07-10T07:48:57.881Z,7.80
2023-07-10T07:51:24.684Z,6.67
2023-07-10T07:54:06.648Z,12.50
2023-07-10T07:56:33.815Z,8.80
2023-07-10T07:59:00.831Z,8.77
2023-07-10T08:01:27.842Z,8.40
2023-07-10T08:03:54.861Z,9.23
2023-07-10T08:06:22.301Z,10.57
2023-07-10T08:08:49.165Z,11.63
2023-07-10T08:11:17.139Z,12.53
2023-07-10T08:13:44.700Z,7.93
2023-07-10T08:16:11.673Z,8.40
2023-07-10T08:18:38.523Z,7.63
2023-07-10T08:21:07.087Z,7.77
2023-07-10T08:23:34.310Z,8.73
2023-07-10T08:26:02.370Z,10.40
2023-07-10T08:28:29.755Z,7.80
2023-07-10T08:30:56.573Z,10.60
2023-07-10T08:33:23.420Z,8.87
2023-07-10T08:35:56.873Z,8.70
2023-07-10T08:38:24.040Z,11.03
2023-07-10T08:40:53.619Z,12.10
2023-07-10T08:43:26.885Z,12.03
2023-07-10T08:46:02.693Z,8.50
2023-07-10T08:48:37.636Z,14.67
2023-07-10T08:51:30.740Z,7.57
2023-07-10T08:54:07.705Z,7.30
2023-07-10T08:56:43.703Z,8.90
2023-07-10T08:59:36.453Z,9.37
2023-07-10T09:02:04.133Z,13.40
2023-07-10T09:04:32.751Z,11.03
2023-07-10T09:07:02.700Z,11.33
2023-07-10T09:09:35.599Z,9.93
2023-07-10T09:12:13.624Z,10.67
2023-07-10T09:14:47.675Z,9.87
2023-07-10T09:17:24.925Z,9.57
2023-07-10T09:19:55.005Z,8.57
2023-07-10T09:22:22.558Z,7.40
2023-07-10T09:24:49.390Z,8.87
2023-07-10T09:27:16.306Z,5.77
2023-07-10T09:29:46.356Z,8.70
2023-07-10T09:32:19.119Z,6.07
2023-07-10T09:34:55.301Z,8.77
2023-07-10T09:37:27.366Z,5.43
2023-07-10T09:39:54.259Z,4.67
2023-07-10T09:42:27.581Z,6.47
2023-07-10T09:44:56.203Z,5.00
2023-07-10T09:47:23.983Z,5.50
2023-07-10T09:49:57.683Z,4.17
2023-07-10T09:52:28.951Z,5.40
2023-07-10T09:55:16.583Z,6.20
2023-07-10T09:58:02.182Z,4.33
2023-07-10T10:00:31.703Z,4.90
2023-07-10T10:03:13.317Z,5.20
2023-07-10T10:05:43.288Z,5.50
2023-07-10T10:08:22.085Z,4.63
2023-07-10T10:11:07.711Z,4.00
2023-07-10T10:13:44.144Z,5.23
2023-07-10T10:16:23.326Z,6.57
2023-07-10T10:18:58.941Z,5.60
2023-07-10T10:21:33.890Z,4.43
2023-07-10T10:24:06.632Z,5.57
2023-07-10T10:26:39.569Z,6.00
2023-07-10T10:29:29.226Z,10.03
2023-07-10T10:32:10.071Z,5.07
2023-07-10T10:34:50.622Z,3.77
2023-07-10T10:37:36.420Z,5.23
2023-07-10T10:40:24.436Z,5.47
2023-07-10T10:42:57.634Z,6.73
2023-07-10T10:45:47.180Z,5.40
2023-07-10T10:48:27.053Z,4.33
2023-07-10T10:51:08.416Z,4.10
2023-07-10T10:53:57.380Z,2.80
2023-07-10T10:56:27.092Z,5.07
2023-07-10T10:59:13.637Z,6.20
2023-07-10T11:01:46.539Z,4.40
2023-07-10T11:04:37.385Z,3.43
2023-07-10T11:07:11.984Z,2.40
2023-07-10T11:09:43.613Z,4.23
2023-07-10T11:12:32.737Z,3.47
2023-07-10T11:15:17.554Z,9.03
2023-07-10T11:17:47.970Z,5.33
2023-07-10T11:20:17.065Z,8.90
2023-07-10T11:22:52.307Z,5.53
2023-07-10T11:25:40.987Z,4.13
2023-07-10T11:28:21.252Z,3.03
2023-07-10T11:31:11.113Z,6.13
2023-07-10T11:33:37.939Z,5.07
2023-07-10T11:36:18.295Z,2.50
2023-07-10T11:39:07.193Z,3.33
2023-07-10T11:41:39.036Z,4.53
2023-07-10T11:44:22.703Z,2.80
2023-07-10T11:47:09.833Z,7.07
2023-07-10T11:49:37.090Z,3.30
2023-07-10T11:52:16.328Z,5.83
2023-07-10T11:54:44.868Z,2.83
2023-07-10T11:57:23.798Z,5.83
2023-07-10T11:59:57.280Z,6.17
2023-07-10T12:02:52.888Z,4.07
2023-07-10T12:05:24.312Z,5.43
2023-07-10T12:08:00.413Z,5.50
2023-07-10T12:10:32.333Z,4.63
2023-07-10T12:13:24.134Z,2.50
2023-07-10T12:15:53.967Z,3.80
2023-07-10T12:18:26.864Z,2.50
2023-07-10T12:20:54.933Z,4.43
2023-07-10T12:23:22.346Z,2.87
2023-07-10T12:25:54.602Z,4.03
2023-07-10T12:28:27.823Z,2.83
2023-07-10T12:30:58.518Z,5.20
2023-07-10T12:33:41.721Z,3.50
2023-07-10T12:36:29.947Z,4.40
2023-07-10T12:39:00.399Z,3.70
2023-07-10T12:41:38.803Z,4.50
2023-07-10T12:44:06.532Z,8.33
2023-07-10T12:46:35.475Z,5.50
2023-07-10T12:49:11.049Z,4.43
2023-07-10T12:51:43.050Z,5.20
2023-07-10T12:54:32.080Z,5.60
2023-07-10T12:56:59.143Z,4.77
2023-07-10T12:59:25.962Z,3.57
2023-07-10T13:02:15.200Z,2.43
2023-07-10T13:04:48.585Z,2.73
2023-07-10T13:07:29.329Z,3.80
2023-07-10T13:10:21.544Z,4.30
2023-07-10T13:12:51.104Z,2.80
2023-07-10T13:15:19.465Z,3.13
2023-07-10T13:17:54.366Z,2.47
2023-07-10T13:20:25.117Z,3.53
2023-07-10T13:22:53.469Z,4.80
2023-07-10T13:25:20.393Z,1.90
2023-07-10T13:27:47.384Z,3.90
2023-07-10T13:30:19.053Z,5.60
2023-07-10T13:32:46.282Z,3.43
2023-07-10T13:35:14.191Z,3.10
2023-07-10T13:37:41.436Z,3.17
2023-07-10T13:40:16.491Z,6.63
2023-07-10T13:42:43.327Z,7.43
2023-07-10T13:45:10.557Z,4.53
2023-07-10T13:47:37.684Z,3.63
2023-07-10T13:50:05.089Z,2.93
2023-07-10T13:52:32.700Z,3.00
2023-07-10T13:54:59.618Z,1.57
2023-07-10T13:57:30.445Z,4.03
2023-07-10T14:00:00.734Z,5.73
2023-07-10T14:02:29.803Z,4.17
2023-07-10T14:04:58.147Z,5.33
2023-07-10T14:07:27.370Z,4.33
2023-07-10T14:09:55.453Z,3.33
2023-07-10T14:12:27.889Z,3.40
2023-07-10T14:14:57.509Z,3.77
2023-07-10T14:17:32.534Z,5.63
2023-07-10T14:20:00.453Z,5.27
2023-07-10T14:22:27.602Z,3.90
2023-07-10T14:24:54.718Z,4.30
2023-07-10T14:27:24.536Z,4.50
2023-07-10T14:29:53.293Z,3.53
2023-07-10T14:32:26.366Z,3.47
2023-07-10T14:34:53.186Z,4.17
2023-07-10T14:37:27.420Z,5.40
2023-07-10T14:39:54.632Z,2.80
2023-07-10T14:42:25.434Z,4.67
2023-07-10T14:44:52.649Z,3.03
2023-07-10T14:47:29.966Z,2.67
2023-07-10T14:49:56.850Z,4.57
2023-07-10T14:52:27.496Z,4.87
2023-07-10T14:54:57.986Z,3.70
2023-07-10T14:57:36.404Z,3.87
2023-07-10T15:00:22.150Z,5.30
2023-07-10T15:02:49.285Z,3.17
2023-07-10T15:05:16.494Z,7.90
2023-07-10T15:07:44.831Z,3.63
2023-07-10T15:10:26.568Z,3.70
2023-07-10T15:13:01.391Z,4.53
2023-07-10T15:15:36.736Z,4.53
2023-07-10T15:18:05.040Z,2.43
2023-07-10T15:20:31.973Z,3.60
2023-07-10T15:22:58.843Z,3.73
2023-07-10T15:25:30.204Z,2.97
2023-07-10T15:27:57.290Z,5.20
2023-07-10T15:30:27.778Z,9.50
2023-07-10T15:32:55.102Z,7.80
2023-07-10T15:35:23.507Z,7.83
2023-07-10T15:37:50.389Z,4.03
2023-07-10T15:40:19.695Z,5.47
2023-07-10T15:42:48.663Z,8.47
2023-07-10T15:45:17.858Z,3.07
2023-07-10T15:47:50.561Z,3.20
2023-07-10T15:50:18.930Z,5.00
2023-07-10T15:52:49.824Z,4.50
2023-07-10T15:55:36.084Z,3.80
2023-07-10T15:58:05.836Z,3.60
2023-07-10T16:00:38.733Z,5.33
2023-07-10T16:03:35.005Z,4.77
2023-07-10T16:06:04.355Z,4.43
2023-07-10T16:08:35.830Z,4.97
2023-07-10T16:11:15.890Z,3.83
2023-07-10T16:13:43.626Z,5.00
2023-07-10T16:16:10.857Z,4.00
2023-07-10T16:18:37.933Z,3.93
2023-07-10T16:21:20.924Z,5.70
2023-07-10T16:23:48.016Z,5.47
2023-07-10T16:26:16.649Z,2.27
2023-07-10T16:28:43.796Z,4.70
2023-07-10T16:31:16.594Z,7.70
2023-07-10T16:33:44.279Z,3.33
2023-07-10T16:36:15.878Z,3.53
2023-07-10T16:38:43.055Z,5.63
2023-07-10T16:41:21.152Z,5.30
2023-07-10T16:43:48.980Z,5.23
2023-07-10T16:46:16.921Z,4.97
2023-07-10T16:48:45.423Z,2.83
2023-07-10T16:51:23.045Z,6.00
2023-07-10T16:53:50.401Z,5.00
2023-07-10T16:56:20.036Z,4.73
2023-07-10T16:58:47.250Z,1.30
2023-07-10T17:01:28.909Z,3.97
2023-07-10T17:03:59.264Z,11.30
2023-07-10T17:06:28.685Z,4.87
2023-07-10T17:08:56.052Z,2.93
2023-07-10T17:11:31.970Z,5.47
2023-07-10T17:14:00.025Z,7.17
2023-07-10T17:16:27.667Z,3.13
2023-07-10T17:18:54.565Z,4.00
2023-07-10T17:21:21.772Z,2.07
2023-07-10T17:23:48.640Z,4.60
2023-07-10T17:26:20.287Z,4.30
2023-07-10T17:28:48.268Z,3.97
2023-07-10T17:31:20.113Z,4.80
2023-07-10T17:33:49.571Z,1.57
2023-07-10T17:36:18.093Z,5.00
2023-07-10T17:38:45.284Z,1.70
2023-07-10T17:41:21.816Z,5.80
2023-07-10T17:43:58.593Z,3.13
2023-07-10T17:46:25.671Z,3.80
2023-07-10T17:48:52.926Z,2.80
2023-07-10T17:51:29.660Z,3.63
2023-07-10T17:53:57.776Z,2.80
2023-07-10T17:56:25.923Z,3.70
2023-07-10T17:58:56.370Z,2.83
2023-07-10T18:01:26.492Z,4.33
2023-07-10T18:03:57.721Z,4.03
2023-07-10T18:06:25.694Z,4.53
2023-07-10T18:08:52.772Z,2.13
2023-07-10T18:11:32.720Z,1.80
2023-07-10T18:14:00.496Z,2.93
2023-07-10T18:16:27.633Z,2.80
2023-07-10T18:18:54.478Z,5.47
2023-07-10T18:21:30.166Z,6.23
2023-07-10T18:23:59.226Z,3.37
2023-07-10T18:26:29.401Z,2.60
2023-07-10T18:28:57.008Z,2.30
2023-07-10T18:31:28.948Z,2.33
2023-07-10T18:33:56.412Z,4.10
2023-07-10T18:36:25.590Z,3.40
2023-07-10T18:38:53.064Z,2.13
2023-07-10T18:41:23.772Z,2.10
2023-07-10T18:43:52.935Z,5.43
2023-07-10T18:46:22.698Z,2.40
2023-07-10T18:48:50.079Z,3.40
2023-07-10T18:51:24.250Z,2.93
2023-07-10T18:53:52.516Z,2.20
2023-07-10T18:56:19.981Z,4.57
2023-07-10T18:58:48.351Z,2.90
2023-07-10T19:01:20.352Z,3.50
2023-07-10T19:03:47.933Z,2.47
2023-07-10T19:06:28.360Z,2.83
2023-07-10T19:08:55.673Z,2.97
2023-07-10T19:11:22.543Z,4.53
2023-07-10T19:13:49.522Z,2.03
2023-07-10T19:16:28.714Z,7.20
2023-07-10T19:19:00.187Z,3.30
2023-07-10T19:21:28.139Z,3.37
2023-07-10T19:23:55.149Z,3.97
2023-07-10T19:26:23.309Z,3.40
2023-07-10T19:28:51.225Z,5.27
2023-07-10T19:31:22.589Z,3.03
2023-07-10T19:33:50.913Z,2.37
2023-07-10T19:36:29.525Z,4.10
2023-07-10T19:38:57.688Z,2.03
2023-07-10T19:41:24.877Z,3.00
2023-07-10T19:43:51.745Z,4.50
2023-07-10T19:46:22.450Z,3.90
2023-07-10T19:48:49.472Z,3.30
2023-07-10T19:51:16.796Z,3.53
2023-07-10T19:53:43.795Z,3.20
2023-07-10T19:56:21.842Z,2.63
2023-07-10T19:58:51.443Z,3.03
2023-07-10T20:01:19.854Z,3.80
2023-07-10T20:03:47.353Z,4.10
2023-07-10T20:06:27.098Z,5.73
2023-07-10T20:08:53.984Z,2.87
2023-07-10T20:11:22.223Z,3.30
2023-07-10T20:13:49.259Z,4.90
2023-07-10T20:16:25.266Z,2.83
2023-07-10T20:18:52.831Z,3.70
2023-07-10T20:21:19.783Z,5.63
2023-07-10T20:23:46.624Z,4.10
2023-07-10T20:26:16.770Z,6.60
2023-07-10T20:28:44.526Z,4.70
2023-07-10T20:31:13.453Z,3.53
2023-07-10T20:33:40.999Z,4.00
2023-07-10T20:36:22.361Z,3.03
2023-07-10T20:38:51.644Z,2.70
2023-07-10T20:41:21.153Z,2.93
2023-07-10T20:43:49.248Z,2.70
2023-07-10T20:46:22.567Z,6.47
2023-07-10T20:48:53.188Z,2.43
2023-07-10T20:51:27.996Z,3.10
2023-07-10T20:53:56.971Z,3.27
2023-07-10T20:56:28.275Z,2.37
2023-07-10T20:58:57.217Z,2.57
2023-07-10T21:01:26.618Z,2.70
2023-07-10T21:03:53.830Z,5.00
2023-07-10T21:06:26.456Z,3.83
2023-07-10T21:08:55.619Z,5.00
2023-07-10T21:11:25.196Z,3.50
2023-07-10T21:13:53.814Z,3.57
2023-07-10T21:16:23.900Z,5.27
2023-07-10T21:18:51.574Z,3.13
2023-07-10T21:21:18.970Z,2.73
2023-07-10T21:23:47.432Z,8.70
2023-07-10T21:26:23.046Z,4.63
2023-07-10T21:28:52.660Z,5.60
2023-07-10T21:31:25.474Z,4.00
2023-07-10T21:33:54.633Z,6.97
2023-07-10T21:36:22.568Z,2.57
2023-07-10T21:38:49.915Z,3.33
2023-07-10T21:41:27.058Z,3.60
2023-07-10T21:43:55.652Z,2.60
2023-07-10T21:46:32.913Z,8.90
2023-07-10T21:49:00.417Z,5.70
2023-07-10T21:51:28.636Z,4.20
2023-07-10T21:53:55.660Z,6.27
2023-07-10T21:56:28.131Z,2.20
2023-07-10T21:59:00.818Z,3.00
2023-07-10T22:01:30.636Z,3.33
2023-07-10T22:03:58.414Z,2.70
2023-07-10T22:06:27.861Z,2.77
2023-07-10T22:08:54.776Z,6.07
2023-07-10T22:11:27.103Z,3.23
2023-07-10T22:13:54.160Z,3.90
2023-07-10T22:16:26.676Z,4.13
2023-07-10T22:18:55.187Z,2.80
2023-07-10T22:21:24.285Z,4.13
2023-07-10T22:23:51.131Z,4.40
2023-07-10T22:26:18.647Z,2.97
2023-07-10T22:28:46.306Z,3.27
2023-07-10T22:31:20.057Z,3.43
2023-07-10T22:33:47.602Z,3.97
2023-07-10T22:36:16.092Z,4.63
2023-07-10T22:38:44.100Z,5.30
2023-07-10T22:41:21.204Z,6.50
2023-07-10T22:43:50.512Z,4.73
2023-07-10T22:46:28.382Z,6.40
2023-07-10T22:49:00.073Z,5.00
2023-07-10T22:51:30.987Z,7.33
2023-07-10T22:53:59.186Z,6.57
2023-07-10T22:56:29.789Z,6.37
2023-07-10T22:58:56.972Z,3.80
2023-07-10T23:01:25.215Z,3.67
2023-07-10T23:03:53.655Z,8.40
2023-07-10T23:06:22.145Z,3.40
2023-07-10T23:08:50.332Z,2.83
2023-07-10T23:11:17.454Z,3.67
2023-07-10T23:13:47.557Z,3.27
2023-07-10T23:16:17.141Z,7.20
2023-07-10T23:18:53.028Z,4.43
2023-07-10T23:21:20.645Z,4.03
2023-07-10T23:23:47.406Z,2.83
2023-07-10T23:26:16.417Z,3.83
2023-07-10T23:28:43.194Z,3.53
2023-07-10T23:31:25.024Z,3.23
2023-07-10T23:33:52.370Z,2.67
2023-07-10T23:36:21.060Z,3.67
2023-07-10T23:38:48.171Z,3.33
2023-07-10T23:41:15.983Z,6.40
2023-07-10T23:43:43.205Z,5.70
2023-07-10T23:46:10.471Z,3.10
2023-07-10T23:48:37.460Z,3.67
2023-07-10T23:51:04.601Z,3.03
2023-07-10T23:53:31.849Z,3.50
2023-07-10T23:55:59.159Z,5.77
2023-07-10T23:58:26.355Z,4.40
